Petit Prince — FN8776 — position and weather

sailwx.info

Track history (hours):
 
Tides and Currents Weather Stations Pressure Air Temp Water Temp Dewpoint Dewpoint Depression Visibility Wind Speed Wind Dir Waves Ship Positions

Petit Prince

Last reported at 2018-Jun-20 21:30 UTC. Time now 2018-Jun-21 00:51 UTC.
Position N 41°24' E 002°15'.

Length 11 m.

Type: Pleasure craft. MMSI: 227052850.

Date/timePositionNaut miles runAvg speedWind from/ knotsBaromVisibWave heightAir tempDewpointWater temp
2018-Jun-20 21:30N 41°24' E 002°15'610.6
2018-Jun-20 20:54N 41°17' E 002°15'1 1.7
2018-Jun-20 20:27N 41°17' E 002°16'1 1.7
2018-Jun-20 20:00N 41°17' E 002°15'6 4.2
2018-Jun-20 18:30N 41°12' E 002°12'230 4.5
2018-Jun-18 15:02N 37°57' W 000°25'12 5.9
2018-Jun-18 12:58N 37°46' W 000°32'2 4.5
2018-Jun-18 12:25N 37°44' W 000°34'3 4.3
2018-Jun-18 11:41N 37°41' W 000°36'1 4.2
2018-Jun-18 11:24N 37°40' W 000°36'2 4.2
2018-Jun-18 10:53N 37°38' W 000°38'9 3.9
2018-Jun-18 08:40N 37°33' W 000°46'1 3.8
2018-Jun-18 08:29N 37°33' W 000°47'3 4.0
2018-Jun-18 07:44N 37°32' W 000°51'  
2018-Jun-12 14:13N 37°45' W 009°17'1 6.6
2018-Jun-12 14:00N 37°47' W 009°17'3 6.6
2018-Jun-12 13:30N 37°50' W 009°18'3 6.8
2018-Jun-12 13:00N 37°53' W 009°18'4 6.9
2018-Jun-12 12:29N 37°57' W 009°18'3 6.6
2018-Jun-12 12:00N 38°00' W 009°19'3 6.8
2018-Jun-12 11:30N 38°04' W 009°19'5 6.6
2018-Jun-12 10:49N 38°08' W 009°20'12 6.5
2018-Jun-12 09:02N 38°19' W 009°22'2 6.4
2018-Jun-12 08:40N 38°22' W 009°22'2 6.0
2018-Jun-12 08:21N 38°24' W 009°23'2 6.3
2018-Jun-12 07:59N 38°26' W 009°23'3 6.1
2018-Jun-12 07:29N 38°29' W 009°23'3 5.5
2018-Jun-12 06:57N 38°32' W 009°23'2 5.2
2018-Jun-12 06:30N 38°34' W 009°24'2 5.1
2018-Jun-12 06:00N 38°37' W 009°24'2 4.8
2018-Jun-12 05:30N 38°39' W 009°24'2 4.7
2018-Jun-12 05:00N 38°42' W 009°25'0 0.2
2018-Jun-12 02:21N 38°42' W 009°25'0 0.0
2018-Jun-12 00:51N 38°42' W 009°25'0 0.0
2018-Jun-11 23:33N 38°42' W 009°25'0 0.0
2018-Jun-11 23:18N 38°42' W 009°25'0 0.0
2018-Jun-11 23:00N 38°42' W 009°25'0 0.0
2018-Jun-11 19:00N 38°42' W 009°25'0 0.0
2018-Jun-11 17:39N 38°42' W 009°25'0 0.8
2018-Jun-11 17:26N 38°42' W 009°25'2 4.3
2018-Jun-11 16:54N 38°41' W 009°22'2 4.7
2018-Jun-11 16:23N 38°40' W 009°19'3 7.7
2018-Jun-11 16:00N 38°41' W 009°16'5 7.0
2018-Jun-11 15:19N 38°42' W 009°10'2 4.5
2018-Jun-11 14:56N 38°40' W 009°08'2 4.5
2018-Jun-11 14:30N 38°39' W 009°06'1 1.3
2018-Jun-11 13:51N 38°39' W 009°06'0 0.0
2018-Jun-11 13:21N 38°39' W 009°06'0 0.0
2018-Jun-11 12:54N 38°39' W 009°06'0 0.0
2018-Jun-11 12:30N 38°39' W 009°06'0 0.0
2018-Jun-11 11:36N 38°39' W 009°06'0 0.0
2018-Jun-11 11:30N 38°39' W 009°06'0 0.0
2018-Jun-11 10:57N 38°39' W 009°06'0 0.0
2018-Jun-11 10:27N 38°39' W 009°06'0 0.0
2018-Jun-11 09:15N 38°39' W 009°06'0 0.0
2018-Jun-11 08:45N 38°39' W 009°06'0 0.0
2018-Jun-11 08:24N 38°39' W 009°06'0 0.0
2018-Jun-11 07:03N 38°39' W 009°06'0 0.0
2018-Jun-11 06:51N 38°39' W 009°06'0 0.0
2018-Jun-11 05:27N 38°39' W 009°06'0 0.0
2018-Jun-11 04:33N 38°39' W 009°06'0 0.0
2018-Jun-11 03:30N 38°39' W 009°06'0 0.0
2018-Jun-11 00:51N 38°39' W 009°06'0 0.0
2018-Jun-11 00:27N 38°39' W 009°06'0 0.0
2018-Jun-10 23:57N 38°39' W 009°06'0 0.0
2018-Jun-10 23:03N 38°39' W 009°06'0 0.0
2018-Jun-10 22:51N 38°39' W 009°06'0 0.0
2018-Jun-10 21:51N 38°39' W 009°06'  
Track history (hours):
 
Tides and Currents Weather Stations Pressure Air Temp Water Temp Dewpoint Dewpoint Depression Visibility Wind Speed Wind Dir Waves Ship Positions

Petit Prince

Last reported at 2018-Jun-20 21:30 UTC. Time now 2018-Jun-21 00:51 UTC.
Position N 41°24' E 002°15'.

Length 11 m.

Type: Pleasure craft. MMSI: 227052850.

Date/timePositionNaut miles runAvg speedWind from/ knotsBaromVisibWave heightAir tempDewpointWater temp
2018-Jun-20 21:30N 41°24' E 002°15'610.6
2018-Jun-20 20:54N 41°17' E 002°15'1 1.7
2018-Jun-20 20:27N 41°17' E 002°16'1 1.7
2018-Jun-20 20:00N 41°17' E 002°15'6 4.2
2018-Jun-20 18:30N 41°12' E 002°12'230 4.5
2018-Jun-18 15:02N 37°57' W 000°25'12 5.9
2018-Jun-18 12:58N 37°46' W 000°32'2 4.5
2018-Jun-18 12:25N 37°44' W 000°34'3 4.3
2018-Jun-18 11:41N 37°41' W 000°36'1 4.2
2018-Jun-18 11:24N 37°40' W 000°36'2 4.2
2018-Jun-18 10:53N 37°38' W 000°38'9 3.9
2018-Jun-18 08:40N 37°33' W 000°46'1 3.8
2018-Jun-18 08:29N 37°33' W 000°47'3 4.0
2018-Jun-18 07:44N 37°32' W 000°51'  
2018-Jun-12 14:13N 37°45' W 009°17'1 6.6
2018-Jun-12 14:00N 37°47' W 009°17'3 6.6
2018-Jun-12 13:30N 37°50' W 009°18'3 6.8
2018-Jun-12 13:00N 37°53' W 009°18'4 6.9
2018-Jun-12 12:29N 37°57' W 009°18'3 6.6
2018-Jun-12 12:00N 38°00' W 009°19'3 6.8
2018-Jun-12 11:30N 38°04' W 009°19'5 6.6
2018-Jun-12 10:49N 38°08' W 009°20'12 6.5
2018-Jun-12 09:02N 38°19' W 009°22'2 6.4
2018-Jun-12 08:40N 38°22' W 009°22'2 6.0
2018-Jun-12 08:21N 38°24' W 009°23'2 6.3
2018-Jun-12 07:59N 38°26' W 009°23'3 6.1
2018-Jun-12 07:29N 38°29' W 009°23'3 5.5
2018-Jun-12 06:57N 38°32' W 009°23'2 5.2
2018-Jun-12 06:30N 38°34' W 009°24'2 5.1
2018-Jun-12 06:00N 38°37' W 009°24'2 4.8
2018-Jun-12 05:30N 38°39' W 009°24'2 4.7
2018-Jun-12 05:00N 38°42' W 009°25'0 0.2
2018-Jun-12 02:21N 38°42' W 009°25'0 0.0
2018-Jun-12 00:51N 38°42' W 009°25'0 0.0
2018-Jun-11 23:33N 38°42' W 009°25'0 0.0
2018-Jun-11 23:18N 38°42' W 009°25'0 0.0
2018-Jun-11 23:00N 38°42' W 009°25'0 0.0
2018-Jun-11 19:00N 38°42' W 009°25'0 0.0
2018-Jun-11 17:39N 38°42' W 009°25'0 0.8
2018-Jun-11 17:26N 38°42' W 009°25'2 4.3
2018-Jun-11 16:54N 38°41' W 009°22'2 4.7
2018-Jun-11 16:23N 38°40' W 009°19'3 7.7
2018-Jun-11 16:00N 38°41' W 009°16'5 7.0
2018-Jun-11 15:19N 38°42' W 009°10'2 4.5
2018-Jun-11 14:56N 38°40' W 009°08'2 4.5
2018-Jun-11 14:30N 38°39' W 009°06'1 1.3
2018-Jun-11 13:51N 38°39' W 009°06'0 0.0
2018-Jun-11 13:21N 38°39' W 009°06'0 0.0
2018-Jun-11 12:54N 38°39' W 009°06'0 0.0
2018-Jun-11 12:30N 38°39' W 009°06'0 0.0
2018-Jun-11 11:36N 38°39' W 009°06'0 0.0
2018-Jun-11 11:30N 38°39' W 009°06'0 0.0
2018-Jun-11 10:57N 38°39' W 009°06'0 0.0
2018-Jun-11 10:27N 38°39' W 009°06'0 0.0
2018-Jun-11 09:15N 38°39' W 009°06'0 0.0
2018-Jun-11 08:45N 38°39' W 009°06'0 0.0
2018-Jun-11 08:24N 38°39' W 009°06'0 0.0
2018-Jun-11 07:03N 38°39' W 009°06'0 0.0
2018-Jun-11 06:51N 38°39' W 009°06'0 0.0
2018-Jun-11 05:27N 38°39' W 009°06'0 0.0
2018-Jun-11 04:33N 38°39' W 009°06'0 0.0
2018-Jun-11 03:30N 38°39' W 009°06'0 0.0
2018-Jun-11 00:51N 38°39' W 009°06'0 0.0
2018-Jun-11 00:27N 38°39' W 009°06'0 0.0
2018-Jun-10 23:57N 38°39' W 009°06'0 0.0
2018-Jun-10 23:03N 38°39' W 009°06'0 0.0
2018-Jun-10 22:51N 38°39' W 009°06'0 0.0
2018-Jun-10 21:51N 38°39' W 009°06'  

Dump ship's entire track history